sensor_id;sensor_type;location;lat;lon;timestamp;pressure;altitude;pressure_sealevel;temperature;humidity
54389;BME280;40975;50.390;8.640;2023-03-18T00:00:11;98574.50;;;7.43;100.00
54389;BME280;40975;50.390;8.640;2023-03-18T00:02:38;98579.06;;;7.41;100.00
54389;BME280;40975;50.390;8.640;2023-03-18T00:05:05;98578.25;;;7.40;100.00
54389;BME280;40975;50.390;8.640;2023-03-18T00:07:32;98581.44;;;7.44;100.00
54389;BME280;40975;50.390;8.640;2023-03-18T00:09:57;98587.69;;;7.53;100.00
54389;BME280;40975;50.390;8.640;2023-03-18T00:12:23;98587.69;;;7.62;100.00
54389;BME280;40975;50.390;8.640;2023-03-18T00:14:49;98593.09;;;7.81;100.00
54389;BME280;40975;50.390;8.640;2023-03-18T00:17:15;98594.59;;;7.93;100.00
54389;BME280;40975;50.390;8.640;2023-03-18T00:19:41;98596.78;;;8.07;100.00
54389;BME280;40975;50.390;8.640;2023-03-18T00:22:07;98598.53;;;8.27;100.00
54389;BME280;40975;50.390;8.640;2023-03-18T00:24:35;98585.78;;;8.40;100.00
54389;BME280;40975;50.390;8.640;2023-03-18T00:27:00;98601.41;;;8.71;100.00
54389;BME280;40975;50.390;8.640;2023-03-18T00:29:26;98603.91;;;9.00;100.00
54389;BME280;40975;50.390;8.640;2023-03-18T00:31:51;98597.88;;;9.26;100.00
54389;BME280;40975;50.390;8.640;2023-03-18T00:34:18;98601.22;;;9.46;100.00
54389;BME280;40975;50.390;8.640;2023-03-18T00:36:45;98610.19;;;9.54;100.00
54389;BME280;40975;50.390;8.640;2023-03-18T00:39:13;98614.22;;;9.58;100.00
54389;BME280;40975;50.390;8.640;2023-03-18T00:41:38;98622.31;;;9.56;100.00
54389;BME280;40975;50.390;8.640;2023-03-18T00:44:04;98626.38;;;9.51;100.00
54389;BME280;40975;50.390;8.640;2023-03-18T00:46:35;98618.38;;;9.42;100.00
54389;BME280;40975;50.390;8.640;2023-03-18T00:49:05;98625.19;;;9.45;100.00
54389;BME280;40975;50.390;8.640;2023-03-18T00:51:33;98622.16;;;9.40;100.00
54389;BME280;40975;50.390;8.640;2023-03-18T00:54:00;98623.84;;;9.41;100.00
54389;BME280;40975;50.390;8.640;2023-03-18T00:56:29;98619.81;;;9.37;100.00
54389;BME280;40975;50.390;8.640;2023-03-18T00:58:56;98623.59;;;9.34;100.00
54389;BME280;40975;50.390;8.640;2023-03-18T01:01:22;98630.84;;;9.32;100.00
54389;BME280;40975;50.390;8.640;2023-03-18T01:03:48;98623.53;;;9.26;100.00
54389;BME280;40975;50.390;8.640;2023-03-18T01:06:17;98620.94;;;9.16;100.00
54389;BME280;40975;50.390;8.640;2023-03-18T01:08:43;98620.69;;;9.09;100.00
54389;BME280;40975;50.390;8.640;2023-03-18T01:11:09;98613.06;;;9.06;100.00
54389;BME280;40975;50.390;8.640;2023-03-18T01:13:36;98616.00;;;9.03;100.00
54389;BME280;40975;50.390;8.640;2023-03-18T01:16:02;98604.47;;;8.94;100.00
54389;BME280;40975;50.390;8.640;2023-03-18T01:18:29;98607.72;;;8.88;100.00
54389;BME280;40975;50.390;8.640;2023-03-18T01:20:55;98608.63;;;8.79;100.00
54389;BME280;40975;50.390;8.640;2023-03-18T01:23:22;98612.00;;;8.71;100.00
54389;BME280;40975;50.390;8.640;2023-03-18T01:25:47;98617.47;;;8.60;100.00
54389;BME280;40975;50.390;8.640;2023-03-18T01:28:17;98611.28;;;8.51;100.00
54389;BME280;40975;50.390;8.640;2023-03-18T01:30:42;98616.44;;;8.43;100.00
54389;BME280;40975;50.390;8.640;2023-03-18T01:33:08;98622.59;;;8.33;100.00
54389;BME280;40975;50.390;8.640;2023-03-18T01:35:35;98617.84;;;8.27;100.00
54389;BME280;40975;50.390;8.640;2023-03-18T01:38:03;98619.00;;;8.24;100.00
54389;BME280;40975;50.390;8.640;2023-03-18T01:40:32;98610.50;;;8.21;100.00
54389;BME280;40975;50.390;8.640;2023-03-18T01:43:10;98613.84;;;8.23;100.00
54389;BME280;40975;50.390;8.640;2023-03-18T01:45:38;98609.38;;;8.23;100.00
54389;BME280;40975;50.390;8.640;2023-03-18T01:48:04;98600.50;;;8.15;100.00
54389;BME280;40975;50.390;8.640;2023-03-18T01:50:33;98614.44;;;8.07;100.00
54389;BME280;40975;50.390;8.640;2023-03-18T01:53:03;98605.13;;;8.03;100.00
54389;BME280;40975;50.390;8.640;2023-03-18T01:55:31;98610.41;;;8.03;100.00
54389;BME280;40975;50.390;8.640;2023-03-18T01:57:58;98622.81;;;8.02;100.00
54389;BME280;40975;50.390;8.640;2023-03-18T02:00:26;98625.44;;;8.02;100.00
54389;BME280;40975;50.390;8.640;2023-03-18T02:02:53;98621.25;;;8.00;100.00
54389;BME280;40975;50.390;8.640;2023-03-18T02:05:21;98615.97;;;8.00;100.00
54389;BME280;40975;50.390;8.640;2023-03-18T02:07:48;98622.13;;;8.00;100.00
54389;BME280;40975;50.390;8.640;2023-03-18T02:10:23;98621.69;;;8.05;100.00
54389;BME280;40975;50.390;8.640;2023-03-18T02:12:55;98611.38;;;8.02;100.00
54389;BME280;40975;50.390;8.640;2023-03-18T02:15:28;98614.63;;;7.96;100.00
54389;BME280;40975;50.390;8.640;2023-03-18T02:18:01;98612.78;;;7.96;100.00
54389;BME280;40975;50.390;8.640;2023-03-18T02:20:39;98614.72;;;7.94;100.00
54389;BME280;40975;50.390;8.640;2023-03-18T02:23:40;98618.66;;;7.90;100.00
54389;BME280;40975;50.390;8.640;2023-03-18T02:26:37;98613.63;;;7.87;100.00
54389;BME280;40975;50.390;8.640;2023-03-18T02:29:06;98612.94;;;7.85;100.00
54389;BME280;40975;50.390;8.640;2023-03-18T02:31:42;98609.63;;;7.83;100.00
54389;BME280;40975;50.390;8.640;2023-03-18T02:34:09;98608.09;;;7.80;100.00
54389;BME280;40975;50.390;8.640;2023-03-18T02:36:36;98592.53;;;7.77;100.00
54389;BME280;40975;50.390;8.640;2023-03-18T02:39:12;98591.69;;;7.76;100.00
54389;BME280;40975;50.390;8.640;2023-03-18T02:41:38;98595.59;;;7.72;100.00
54389;BME280;40975;50.390;8.640;2023-03-18T02:44:04;98599.50;;;7.68;100.00
54389;BME280;40975;50.390;8.640;2023-03-18T02:49:25;98604.94;;;7.67;100.00
54389;BME280;40975;50.390;8.640;2023-03-18T02:51:52;98610.88;;;7.69;100.00
54389;BME280;40975;50.390;8.640;2023-03-18T02:54:24;98616.47;;;7.66;100.00
54389;BME280;40975;50.390;8.640;2023-03-18T02:56:51;98605.91;;;7.66;100.00
54389;BME280;40975;50.390;8.640;2023-03-18T02:59:17;98613.13;;;7.63;100.00
54389;BME280;40975;50.390;8.640;2023-03-18T03:01:45;98608.09;;;7.60;100.00
54389;BME280;40975;50.390;8.640;2023-03-18T03:04:11;98604.50;;;7.61;100.00
54389;BME280;40975;50.390;8.640;2023-03-18T03:06:37;98593.13;;;7.61;100.00
54389;BME280;40975;50.390;8.640;2023-03-18T03:09:05;98596.88;;;7.58;100.00
54389;BME280;40975;50.390;8.640;2023-03-18T03:11:33;98593.66;;;7.55;100.00
54389;BME280;40975;50.390;8.640;2023-03-18T03:14:07;98584.38;;;7.51;100.00
54389;BME280;40975;50.390;8.640;2023-03-18T03:16:34;98587.81;;;7.51;100.00
54389;BME280;40975;50.390;8.640;2023-03-18T03:19:00;98596.03;;;7.48;100.00
54389;BME280;40975;50.390;8.640;2023-03-18T03:21:26;98601.44;;;7.46;100.00
54389;BME280;40975;50.390;8.640;2023-03-18T03:23:52;98588.81;;;7.40;100.00
54389;BME280;40975;50.390;8.640;2023-03-18T03:26:19;98601.47;;;7.37;100.00
54389;BME280;40975;50.390;8.640;2023-03-18T03:28:45;98599.91;;;7.34;100.00
54389;BME280;40975;50.390;8.640;2023-03-18T03:31:12;98599.78;;;7.36;100.00
54389;BME280;40975;50.390;8.640;2023-03-18T03:33:39;98601.31;;;7.28;100.00
54389;BME280;40975;50.390;8.640;2023-03-18T03:36:09;98609.38;;;7.27;100.00
54389;BME280;40975;50.390;8.640;2023-03-18T03:38:34;98615.59;;;7.26;100.00
54389;BME280;40975;50.390;8.640;2023-03-18T03:41:00;98613.13;;;7.24;100.00
54389;BME280;40975;50.390;8.640;2023-03-18T03:43:26;98609.22;;;7.19;100.00
54389;BME280;40975;50.390;8.640;2023-03-18T03:45:51;98613.38;;;7.21;100.00
54389;BME280;40975;50.390;8.640;2023-03-18T03:48:17;98617.69;;;7.12;100.00
54389;BME280;40975;50.390;8.640;2023-03-18T03:50:42;98612.84;;;7.08;100.00
54389;BME280;40975;50.390;8.640;2023-03-18T03:53:08;98619.91;;;7.07;100.00
54389;BME280;40975;50.390;8.640;2023-03-18T03:55:35;98619.34;;;7.04;100.00
54389;BME280;40975;50.390;8.640;2023-03-18T03:58:00;98630.16;;;7.00;100.00
54389;BME280;40975;50.390;8.640;2023-03-18T04:00:28;98637.41;;;6.98;100.00
54389;BME280;40975;50.390;8.640;2023-03-18T04:02:53;98643.91;;;6.94;100.00
54389;BME280;40975;50.390;8.640;2023-03-18T04:05:21;98640.69;;;6.91;100.00
54389;BME280;40975;50.390;8.640;2023-03-18T04:07:48;98647.19;;;6.87;100.00
54389;BME280;40975;50.390;8.640;2023-03-18T04:10:16;98630.50;;;6.76;100.00
54389;BME280;40975;50.390;8.640;2023-03-18T04:12:42;98642.03;;;6.75;100.00
54389;BME280;40975;50.390;8.640;2023-03-18T04:15:10;98634.81;;;6.67;100.00
54389;BME280;40975;50.390;8.640;2023-03-18T04:17:36;98630.34;;;6.68;100.00
54389;BME280;40975;50.390;8.640;2023-03-18T04:20:03;98625.94;;;6.68;100.00
54389;BME280;40975;50.390;8.640;2023-03-18T04:22:31;98624.34;;;6.56;100.00
54389;BME280;40975;50.390;8.640;2023-03-18T04:24:58;98625.41;;;6.44;100.00
54389;BME280;40975;50.390;8.640;2023-03-18T04:27:25;98629.97;;;6.42;100.00
54389;BME280;40975;50.390;8.640;2023-03-18T04:29:53;98635.38;;;6.40;100.00
54389;BME280;40975;50.390;8.640;2023-03-18T04:32:20;98634.94;;;6.35;100.00
54389;BME280;40975;50.390;8.640;2023-03-18T04:34:45;98647.16;;;6.36;100.00
54389;BME280;40975;50.390;8.640;2023-03-18T04:37:11;98633.97;;;6.36;100.00
54389;BME280;40975;50.390;8.640;2023-03-18T04:39:39;98635.81;;;6.45;100.00
54389;BME280;40975;50.390;8.640;2023-03-18T04:42:08;98633.75;;;6.49;100.00
54389;BME280;40975;50.390;8.640;2023-03-18T04:44:33;98620.03;;;6.55;100.00
54389;BME280;40975;50.390;8.640;2023-03-18T04:46:59;98622.44;;;6.58;100.00
54389;BME280;40975;50.390;8.640;2023-03-18T04:49:25;98628.13;;;6.63;100.00
54389;BME280;40975;50.390;8.640;2023-03-18T04:51:51;98633.97;;;6.67;100.00
54389;BME280;40975;50.390;8.640;2023-03-18T04:54:24;98635.38;;;6.71;100.00
54389;BME280;40975;50.390;8.640;2023-03-18T04:56:53;98630.41;;;6.78;100.00
54389;BME280;40975;50.390;8.640;2023-03-18T04:59:19;98637.91;;;6.82;100.00
54389;BME280;40975;50.390;8.640;2023-03-18T05:01:45;98640.41;;;6.94;100.00
54389;BME280;40975;50.390;8.640;2023-03-18T05:04:14;98633.09;;;6.97;100.00
54389;BME280;40975;50.390;8.640;2023-03-18T05:06:45;98641.41;;;7.03;100.00
54389;BME280;40975;50.390;8.640;2023-03-18T05:09:12;98636.00;;;7.04;100.00
54389;BME280;40975;50.390;8.640;2023-03-18T05:11:39;98628.78;;;7.06;100.00
54389;BME280;40975;50.390;8.640;2023-03-18T05:14:18;98626.16;;;7.06;100.00
54389;BME280;40975;50.390;8.640;2023-03-18T05:16:45;98625.44;;;7.04;100.00
54389;BME280;40975;50.390;8.640;2023-03-18T05:19:11;98632.38;;;7.05;100.00
54389;BME280;40975;50.390;8.640;2023-03-18T05:21:44;98640.75;;;7.10;100.00
54389;BME280;40975;50.390;8.640;2023-03-18T05:24:09;98645.75;;;7.13;100.00
54389;BME280;40975;50.390;8.640;2023-03-18T05:26:38;98637.00;;;7.13;100.00
54389;BME280;40975;50.390;8.640;2023-03-18T05:29:04;98648.50;;;7.12;100.00
54389;BME280;40975;50.390;8.640;2023-03-18T05:31:37;98646.16;;;7.19;100.00
54389;BME280;40975;50.390;8.640;2023-03-18T05:34:02;98650.22;;;7.23;100.00
54389;BME280;40975;50.390;8.640;2023-03-18T05:36:32;98639.50;;;7.24;100.00
54389;BME280;40975;50.390;8.640;2023-03-18T05:39:04;98649.25;;;7.34;100.00
54389;BME280;40975;50.390;8.640;2023-03-18T05:41:30;98647.00;;;7.39;100.00
54389;BME280;40975;50.390;8.640;2023-03-18T05:43:56;98644.00;;;7.43;100.00
54389;BME280;40975;50.390;8.640;2023-03-18T05:46:22;98643.56;;;7.48;100.00
54389;BME280;40975;50.390;8.640;2023-03-18T05:48:57;98644.13;;;7.52;100.00
54389;BME280;40975;50.390;8.640;2023-03-18T05:51:27;98653.31;;;7.57;100.00
54389;BME280;40975;50.390;8.640;2023-03-18T05:53:54;98652.34;;;7.58;100.00
54389;BME280;40975;50.390;8.640;2023-03-18T05:56:23;98655.66;;;7.60;100.00
54389;BME280;40975;50.390;8.640;2023-03-18T05:58:54;98653.28;;;7.67;100.00
54389;BME280;40975;50.390;8.640;2023-03-18T06:01:39;98660.38;;;7.67;100.00
54389;BME280;40975;50.390;8.640;2023-03-18T06:04:06;98656.63;;;7.69;100.00
54389;BME280;40975;50.390;8.640;2023-03-18T06:06:32;98661.63;;;7.72;100.00
54389;BME280;40975;50.390;8.640;2023-03-18T06:08:58;98665.81;;;7.75;100.00
54389;BME280;40975;50.390;8.640;2023-03-18T06:11:25;98665.53;;;7.68;100.00
54389;BME280;40975;50.390;8.640;2023-03-18T06:13:52;98667.19;;;7.69;100.00
54389;BME280;40975;50.390;8.640;2023-03-18T06:16:17;98673.28;;;7.70;100.00
54389;BME280;40975;50.390;8.640;2023-03-18T06:18:43;98675.69;;;7.63;100.00
54389;BME280;40975;50.390;8.640;2023-03-18T06:21:12;98680.94;;;7.53;100.00
54389;BME280;40975;50.390;8.640;2023-03-18T06:23:38;98681.22;;;7.50;100.00
54389;BME280;40975;50.390;8.640;2023-03-18T06:26:04;98686.06;;;7.35;100.00
54389;BME280;40975;50.390;8.640;2023-03-18T06:28:35;98683.72;;;7.32;100.00
54389;BME280;40975;50.390;8.640;2023-03-18T06:31:05;98678.84;;;7.27;100.00
54389;BME280;40975;50.390;8.640;2023-03-18T06:33:31;98678.97;;;7.26;100.00
54389;BME280;40975;50.390;8.640;2023-03-18T06:35:57;98686.63;;;7.29;100.00
54389;BME280;40975;50.390;8.640;2023-03-18T06:38:25;98680.22;;;7.31;100.00
54389;BME280;40975;50.390;8.640;2023-03-18T06:40:54;98683.81;;;7.30;100.00
54389;BME280;40975;50.390;8.640;2023-03-18T06:43:19;98679.41;;;7.31;100.00
54389;BME280;40975;50.390;8.640;2023-03-18T06:45:45;98684.53;;;7.32;100.00
54389;BME280;40975;50.390;8.640;2023-03-18T06:48:12;98692.47;;;7.42;100.00
54389;BME280;40975;50.390;8.640;2023-03-18T06:50:40;98686.78;;;7.57;100.00
54389;BME280;40975;50.390;8.640;2023-03-18T06:53:11;98683.88;;;7.70;100.00
54389;BME280;40975;50.390;8.640;2023-03-18T06:55:38;98687.50;;;7.88;100.00
54389;BME280;40975;50.390;8.640;2023-03-18T06:58:04;98685.22;;;8.13;100.00
54389;BME280;40975;50.390;8.640;2023-03-18T07:00:40;98696.72;;;8.61;100.00
54389;BME280;40975;50.390;8.640;2023-03-18T07:03:14;98697.91;;;9.05;100.00
54389;BME280;40975;50.390;8.640;2023-03-18T07:05:40;98694.56;;;9.30;100.00
54389;BME280;40975;50.390;8.640;2023-03-18T07:08:07;98696.81;;;9.25;100.00
54389;BME280;40975;50.390;8.640;2023-03-18T07:10:34;98709.06;;;9.08;100.00
54389;BME280;40975;50.390;8.640;2023-03-18T07:13:09;98707.41;;;9.89;100.00
54389;BME280;40975;50.390;8.640;2023-03-18T07:15:35;98708.81;;;10.99;100.00
54389;BME280;40975;50.390;8.640;2023-03-18T07:18:03;98699.31;;;11.39;100.00
54389;BME280;40975;50.390;8.640;2023-03-18T07:20:29;98708.88;;;12.00;100.00
54389;BME280;40975;50.390;8.640;2023-03-18T07:22:54;98714.88;;;12.26;100.00
54389;BME280;40975;50.390;8.640;2023-03-18T07:25:20;98720.16;;;11.93;100.00
54389;BME280;40975;50.390;8.640;2023-03-18T07:27:46;98716.03;;;11.99;100.00
54389;BME280;40975;50.390;8.640;2023-03-18T07:30:12;98719.03;;;12.04;100.00
54389;BME280;40975;50.390;8.640;2023-03-18T07:32:38;98719.66;;;11.81;100.00
54389;BME280;40975;50.390;8.640;2023-03-18T07:35:04;98718.50;;;11.76;100.00
54389;BME280;40975;50.390;8.640;2023-03-18T07:37:30;98724.44;;;11.70;100.00
54389;BME280;40975;50.390;8.640;2023-03-18T07:39:56;98727.84;;;12.05;100.00
54389;BME280;40975;50.390;8.640;2023-03-18T07:42:21;98721.50;;;12.39;100.00
54389;BME280;40975;50.390;8.640;2023-03-18T07:44:47;98720.47;;;12.65;100.00
54389;BME280;40975;50.390;8.640;2023-03-18T07:47:12;98722.09;;;12.82;100.00
54389;BME280;40975;50.390;8.640;2023-03-18T07:49:39;98729.94;;;12.75;100.00
54389;BME280;40975;50.390;8.640;2023-03-18T07:52:06;98731.47;;;13.18;100.00
54389;BME280;40975;50.390;8.640;2023-03-18T07:54:31;98730.13;;;13.22;100.00
54389;BME280;40975;50.390;8.640;2023-03-18T07:56:56;98727.19;;;13.80;100.00
54389;BME280;40975;50.390;8.640;2023-03-18T07:59:22;98727.53;;;13.77;100.00
54389;BME280;40975;50.390;8.640;2023-03-18T08:01:47;98715.22;;;14.14;100.00
54389;BME280;40975;50.390;8.640;2023-03-18T08:04:13;98718.41;;;14.33;96.96
54389;BME280;40975;50.390;8.640;2023-03-18T08:06:38;98717.56;;;14.17;96.23
54389;BME280;40975;50.390;8.640;2023-03-18T08:09:04;98727.91;;;15.03;93.72
54389;BME280;40975;50.390;8.640;2023-03-18T08:11:30;98720.19;;;15.45;88.67
54389;BME280;40975;50.390;8.640;2023-03-18T08:13:57;98732.38;;;16.06;89.53
54389;BME280;40975;50.390;8.640;2023-03-18T08:16:23;98732.97;;;16.52;86.08
54389;BME280;40975;50.390;8.640;2023-03-18T08:18:49;98734.25;;;17.26;84.32
54389;BME280;40975;50.390;8.640;2023-03-18T08:21:15;98732.03;;;18.12;78.40
54389;BME280;40975;50.390;8.640;2023-03-18T08:23:40;98734.97;;;18.24;77.35
54389;BME280;40975;50.390;8.640;2023-03-18T08:26:05;98732.22;;;18.91;72.26
54389;BME280;40975;50.390;8.640;2023-03-18T08:28:31;98730.50;;;19.17;68.98
54389;BME280;40975;50.390;8.640;2023-03-18T08:30:57;98731.69;;;19.41;66.63
54389;BME280;40975;50.390;8.640;2023-03-18T08:33:25;98735.88;;;20.08;67.19
54389;BME280;40975;50.390;8.640;2023-03-18T08:35:51;98734.34;;;19.86;65.37
54389;BME280;40975;50.390;8.640;2023-03-18T08:38:17;98736.06;;;20.38;64.83
54389;BME280;40975;50.390;8.640;2023-03-18T08:40:43;98721.50;;;19.88;59.07
54389;BME280;40975;50.390;8.640;2023-03-18T08:43:08;98736.78;;;19.95;65.20
54389;BME280;40975;50.390;8.640;2023-03-18T08:45:37;98737.31;;;20.10;61.05
54389;BME280;40975;50.390;8.640;2023-03-18T08:48:03;98728.75;;;19.88;60.05
54389;BME280;40975;50.390;8.640;2023-03-18T08:50:28;98728.88;;;19.09;59.50
54389;BME280;40975;50.390;8.640;2023-03-18T08:52:55;98724.53;;;20.31;54.94
54389;BME280;40975;50.390;8.640;2023-03-18T08:55:26;98720.78;;;21.50;51.75
54389;BME280;40975;50.390;8.640;2023-03-18T08:57:52;98732.16;;;22.44;47.94
54389;BME280;40975;50.390;8.640;2023-03-18T09:00:17;98735.53;;;23.22;47.37
54389;BME280;40975;50.390;8.640;2023-03-18T09:02:44;98735.50;;;24.04;45.91
54389;BME280;40975;50.390;8.640;2023-03-18T09:05:10;98735.75;;;25.10;42.31
54389;BME280;40975;50.390;8.640;2023-03-18T09:07:35;98739.28;;;26.04;40.35
54389;BME280;40975;50.390;8.640;2023-03-18T09:10:01;98734.66;;;26.32;39.21
54389;BME280;40975;50.390;8.640;2023-03-18T09:12:26;98733.34;;;27.26;38.21
54389;BME280;40975;50.390;8.640;2023-03-18T09:14:52;98742.53;;;27.83;36.87
54389;BME280;40975;50.390;8.640;2023-03-18T09:17:18;98745.78;;;27.59;36.95
54389;BME280;40975;50.390;8.640;2023-03-18T09:19:43;98748.25;;;27.13;37.57
54389;BME280;40975;50.390;8.640;2023-03-18T09:22:09;98750.34;;;26.95;37.22
54389;BME280;40975;50.390;8.640;2023-03-18T09:24:34;98746.09;;;26.72;37.57
54389;BME280;40975;50.390;8.640;2023-03-18T09:26:59;98753.75;;;27.23;36.96
54389;BME280;40975;50.390;8.640;2023-03-18T09:29:25;98745.84;;;27.96;36.29
54389;BME280;40975;50.390;8.640;2023-03-18T09:31:51;98738.63;;;26.90;36.62
54389;BME280;40975;50.390;8.640;2023-03-18T09:34:17;98740.94;;;25.78;38.98
54389;BME280;40975;50.390;8.640;2023-03-18T09:36:43;98737.88;;;24.00;42.02
54389;BME280;40975;50.390;8.640;2023-03-18T09:39:16;98740.63;;;22.71;43.85
54389;BME280;40975;50.390;8.640;2023-03-18T09:41:45;98744.94;;;21.26;48.57
54389;BME280;40975;50.390;8.640;2023-03-18T09:44:23;98745.78;;;21.27;48.15
54389;BME280;40975;50.390;8.640;2023-03-18T09:47:21;98740.59;;;20.88;48.53
54389;BME280;40975;50.390;8.640;2023-03-18T09:50:34;98740.91;;;20.99;48.04
54389;BME280;40975;50.390;8.640;2023-03-18T09:52:46;98739.16;;;22.33;44.68
54389;BME280;40975;50.390;8.640;2023-03-18T09:55:25;98733.34;;;23.48;42.93
54389;BME280;40975;50.390;8.640;2023-03-18T09:57:56;98726.22;;;24.34;41.89
54389;BME280;40975;50.390;8.640;2023-03-18T10:00:33;98729.91;;;24.62;40.68
54389;BME280;40975;50.390;8.640;2023-03-18T10:03:04;98725.16;;;24.52;39.66
54389;BME280;40975;50.390;8.640;2023-03-18T10:05:52;98726.94;;;25.20;40.44
54389;BME280;40975;50.390;8.640;2023-03-18T10:10:47;98730.22;;;27.60;36.97
54389;BME280;40975;50.390;8.640;2023-03-18T10:13:37;98734.47;;;27.35;37.41
54389;BME280;40975;50.390;8.640;2023-03-18T10:16:10;98729.50;;;26.68;36.41
54389;BME280;40975;50.390;8.640;2023-03-18T10:18:41;98726.97;;;26.24;37.80
54389;BME280;40975;50.390;8.640;2023-03-18T10:21:35;98734.59;;;26.60;39.82
54389;BME280;40975;50.390;8.640;2023-03-18T10:27:09;98729.97;;;27.67;36.12
54389;BME280;40975;50.390;8.640;2023-03-18T10:32:41;98727.38;;;25.34;41.88
54389;BME280;40975;50.390;8.640;2023-03-18T10:35:25;98722.94;;;23.28;44.10
54389;BME280;40975;50.390;8.640;2023-03-18T10:38:24;98725.66;;;24.49;43.80
54389;BME280;40975;50.390;8.640;2023-03-18T10:40:52;98731.69;;;24.90;40.25
54389;BME280;40975;50.390;8.640;2023-03-18T10:43:24;98723.19;;;24.47;40.74
54389;BME280;40975;50.390;8.640;2023-03-18T10:46:03;98730.84;;;24.33;41.67
54389;BME280;40975;50.390;8.640;2023-03-18T10:48:34;98715.19;;;23.20;43.30
54389;BME280;40975;50.390;8.640;2023-03-18T10:51:10;98719.50;;;23.62;42.28
54389;BME280;40975;50.390;8.640;2023-03-18T10:56:13;98723.94;;;22.62;43.34
54389;BME280;40975;50.390;8.640;2023-03-18T10:58:40;98722.59;;;21.75;47.65
54389;BME280;40975;50.390;8.640;2023-03-18T11:01:08;98724.47;;;21.56;49.83
54389;BME280;40975;50.390;8.640;2023-03-18T11:03:37;98720.00;;;20.75;51.13
54389;BME280;40975;50.390;8.640;2023-03-18T11:06:14;98719.97;;;19.99;53.80
54389;BME280;40975;50.390;8.640;2023-03-18T11:08:41;98714.31;;;20.33;55.98
54389;BME280;40975;50.390;8.640;2023-03-18T11:13:50;98719.44;;;19.91;59.33
54389;BME280;40975;50.390;8.640;2023-03-18T11:18:55;98698.56;;;19.34;54.96
54389;BME280;40975;50.390;8.640;2023-03-18T11:21:22;98719.72;;;19.23;61.70
54389;BME280;40975;50.390;8.640;2023-03-18T11:23:57;98702.22;;;19.01;59.82
54389;BME280;40975;50.390;8.640;2023-03-18T11:26:52;98711.53;;;18.91;58.75
54389;BME280;40975;50.390;8.640;2023-03-18T11:29:26;98710.84;;;19.16;60.50
54389;BME280;40975;50.390;8.640;2023-03-18T11:31:56;98708.03;;;18.98;56.38
54389;BME280;40975;50.390;8.640;2023-03-18T11:34:23;98718.16;;;18.82;58.68
54389;BME280;40975;50.390;8.640;2023-03-18T11:36:58;98707.84;;;18.72;56.79
54389;BME280;40975;50.390;8.640;2023-03-18T11:39:28;98716.91;;;18.98;64.52
54389;BME280;40975;50.390;8.640;2023-03-18T11:41:56;98709.47;;;18.93;60.22
54389;BME280;40975;50.390;8.640;2023-03-18T11:44:32;98708.88;;;18.78;56.99
54389;BME280;40975;50.390;8.640;2023-03-18T11:47:21;98715.84;;;18.92;56.85
54389;BME280;40975;50.390;8.640;2023-03-18T11:49:48;98702.53;;;19.24;57.39
54389;BME280;40975;50.390;8.640;2023-03-18T11:55:08;98710.09;;;18.95;55.16
54389;BME280;40975;50.390;8.640;2023-03-18T12:00:33;98706.84;;;18.33;58.31
54389;BME280;40975;50.390;8.640;2023-03-18T12:14:03;98698.13;;;18.78;56.43
54389;BME280;40975;50.390;8.640;2023-03-18T12:22:27;98698.38;;;18.43;58.48
54389;BME280;40975;50.390;8.640;2023-03-18T12:27:50;98704.13;;;17.93;59.61
54389;BME280;40975;50.390;8.640;2023-03-18T12:30:32;98704.41;;;17.43;61.91
54389;BME280;40975;50.390;8.640;2023-03-18T12:36:19;98698.09;;;17.77;61.47
54389;BME280;40975;50.390;8.640;2023-03-18T12:41:59;98702.84;;;17.68;60.42
54389;BME280;40975;50.390;8.640;2023-03-18T12:46:59;98696.06;;;17.86;60.29
54389;BME280;40975;50.390;8.640;2023-03-18T12:49:33;98690.03;;;18.85;57.83
54389;BME280;40975;50.390;8.640;2023-03-18T12:57:40;98688.25;;;18.38;57.37
54389;BME280;40975;50.390;8.640;2023-03-18T13:03:02;98693.84;;;18.16;59.05
54389;BME280;40975;50.390;8.640;2023-03-18T13:05:41;98686.41;;;18.05;58.24
54389;BME280;40975;50.390;8.640;2023-03-18T13:08:17;98688.47;;;17.96;58.83
54389;BME280;40975;50.390;8.640;2023-03-18T13:10:51;98683.03;;;17.90;58.80
54389;BME280;40975;50.390;8.640;2023-03-18T13:13:19;98691.56;;;18.00;60.71
54389;BME280;40975;50.390;8.640;2023-03-18T13:15:50;98694.53;;;17.50;59.84
54389;BME280;40975;50.390;8.640;2023-03-18T13:18:39;98694.88;;;17.27;61.38
54389;BME280;40975;50.390;8.640;2023-03-18T13:21:10;98686.59;;;17.21;61.68
54389;BME280;40975;50.390;8.640;2023-03-18T13:29:26;98685.53;;;17.16;60.90
54389;BME280;40975;50.390;8.640;2023-03-18T13:32:21;98681.47;;;17.27;60.94
54389;BME280;40975;50.390;8.640;2023-03-18T13:35:02;98682.31;;;17.34;59.98
54389;BME280;40975;50.390;8.640;2023-03-18T13:40:32;98677.16;;;17.39;59.00
54389;BME280;40975;50.390;8.640;2023-03-18T13:43:02;98678.72;;;17.13;59.52
54389;BME280;40975;50.390;8.640;2023-03-18T13:45:36;98679.53;;;17.14;61.10
54389;BME280;40975;50.390;8.640;2023-03-18T13:50:39;98681.69;;;16.90;63.33
54389;BME280;40975;50.390;8.640;2023-03-18T13:58:27;98667.78;;;17.15;62.83
54389;BME280;40975;50.390;8.640;2023-03-18T14:05:48;98671.09;;;16.75;61.28
54389;BME280;40975;50.390;8.640;2023-03-18T14:14:00;98665.38;;;16.50;64.30
54389;BME280;40975;50.390;8.640;2023-03-18T14:16:50;98663.34;;;16.52;64.89
54389;BME280;40975;50.390;8.640;2023-03-18T14:19:23;98658.53;;;16.47;62.38
54389;BME280;40975;50.390;8.640;2023-03-18T14:22:07;98667.84;;;16.51;62.77
54389;BME280;40975;50.390;8.640;2023-03-18T14:24:37;98659.66;;;16.59;62.70
54389;BME280;40975;50.390;8.640;2023-03-18T14:29:37;98659.72;;;17.01;61.28
54389;BME280;40975;50.390;8.640;2023-03-18T14:32:05;98662.19;;;17.03;60.84
54389;BME280;40975;50.390;8.640;2023-03-18T14:37:52;98665.47;;;16.98;60.80
54389;BME280;40975;50.390;8.640;2023-03-18T14:40:19;98654.19;;;16.74;62.11
54389;BME280;40975;50.390;8.640;2023-03-18T14:43:10;98667.94;;;16.65;61.40
54389;BME280;40975;50.390;8.640;2023-03-18T14:45:43;98660.56;;;16.73;61.39